createdAt,value
2019-06-20T00:01:53.377Z,9.25
2019-06-20T00:04:22.667Z,9.85
2019-06-20T00:06:51.959Z,9.78
2019-06-20T00:09:21.248Z,9.63
2019-06-20T00:11:50.550Z,9.18
2019-06-20T00:14:19.834Z,8.60
2019-06-20T00:16:49.157Z,9.65
2019-06-20T00:19:18.582Z,9.60
2019-06-20T00:21:47.914Z,8.90
2019-06-20T00:24:17.189Z,8.93
2019-06-20T00:26:46.573Z,8.23
2019-06-20T00:29:15.823Z,8.03
2019-06-20T00:31:45.119Z,8.20
2019-06-20T00:34:14.399Z,7.90
2019-06-20T00:36:43.672Z,8.45
2019-06-20T00:39:12.948Z,7.85
2019-06-20T00:41:42.256Z,8.25
2019-06-20T00:44:11.576Z,8.35
2019-06-20T00:46:40.881Z,7.45
2019-06-20T00:49:10.227Z,7.50
2019-06-20T00:51:39.497Z,7.47
2019-06-20T00:54:08.748Z,7.22
2019-06-20T00:56:38.027Z,7.17
2019-06-20T00:59:07.350Z,7.42
2019-06-20T01:01:36.659Z,7.67
2019-06-20T01:04:05.961Z,7.25
2019-06-20T01:06:35.245Z,7.70
2019-06-20T01:09:06.400Z,7.70
2019-06-20T01:11:35.668Z,8.45
2019-06-20T01:14:05.683Z,7.97
2019-06-20T01:16:34.972Z,9.55
2019-06-20T01:19:04.404Z,9.98
2019-06-20T01:21:33.676Z,10.18
2019-06-20T01:24:02.976Z,10.82
2019-06-20T01:26:32.228Z,11.85
2019-06-20T01:29:01.577Z,10.93
2019-06-20T01:31:30.944Z,11.40
2019-06-20T01:34:00.378Z,11.55
2019-06-20T01:36:29.776Z,11.30
2019-06-20T01:38:59.177Z,11.55
2019-06-20T01:41:28.462Z,11.93
2019-06-20T01:43:59.208Z,12.60
2019-06-20T01:46:28.573Z,14.45
2019-06-20T01:48:57.890Z,14.73
2019-06-20T01:51:27.208Z,16.55
2019-06-20T01:53:56.519Z,16.93
2019-06-20T01:56:25.785Z,16.52
2019-06-20T01:58:55.098Z,16.93
2019-06-20T02:01:24.341Z,16.50
2019-06-20T02:03:54.502Z,16.75
2019-06-20T02:06:23.780Z,16.95
2019-06-20T02:08:53.119Z,17.12
2019-06-20T02:11:22.342Z,19.30
2019-06-20T02:14:06.537Z,17.90
2019-06-20T02:16:22.697Z,18.77
2019-06-20T02:18:52.031Z,27.00
2019-06-20T02:21:21.271Z,25.52
2019-06-20T02:23:50.556Z,26.42
2019-06-20T02:26:19.887Z,27.58
2019-06-20T02:28:49.188Z,27.73
2019-06-20T02:31:19.125Z,24.02
2019-06-20T02:33:48.402Z,27.55
2019-06-20T02:36:17.695Z,27.70
2019-06-20T02:38:46.965Z,28.00
2019-06-20T02:41:16.429Z,29.57
2019-06-20T02:43:45.700Z,29.98
2019-06-20T02:46:14.995Z,31.68
2019-06-20T02:48:44.250Z,32.85
2019-06-20T02:51:13.570Z,33.00
2019-06-20T02:53:43.110Z,32.15
2019-06-20T02:56:12.397Z,31.48
2019-06-20T02:58:41.681Z,35.05
2019-06-20T03:01:11.000Z,34.90
2019-06-20T03:03:40.278Z,36.08
2019-06-20T03:06:09.943Z,35.55
2019-06-20T03:08:39.278Z,35.60
2019-06-20T03:11:08.713Z,36.20
2019-06-20T03:13:38.182Z,36.77
2019-06-20T03:16:07.526Z,36.55
2019-06-20T03:18:36.932Z,36.03
2019-06-20T03:21:06.339Z,35.75
2019-06-20T03:23:37.144Z,36.03
2019-06-20T03:26:06.550Z,37.48
2019-06-20T03:28:35.871Z,35.20
2019-06-20T03:31:05.212Z,37.55
2019-06-20T03:33:34.528Z,38.42
2019-06-20T03:36:03.781Z,39.18
2019-06-20T03:38:33.037Z,39.05
2019-06-20T03:41:02.326Z,38.60
2019-06-20T03:43:31.605Z,39.98
2019-06-20T03:46:00.874Z,40.95
2019-06-20T03:48:30.143Z,41.88
2019-06-20T03:50:59.521Z,42.25
2019-06-20T03:53:28.752Z,39.60
2019-06-20T03:55:58.029Z,40.78
2019-06-20T03:58:27.332Z,40.60
2019-06-20T04:00:56.580Z,38.92
2019-06-20T04:03:25.899Z,40.33
2019-06-20T04:05:55.180Z,40.92
2019-06-20T04:08:24.456Z,42.05
2019-06-20T04:10:53.830Z,41.05
2019-06-20T04:13:23.167Z,42.53
2019-06-20T04:15:52.448Z,41.15
2019-06-20T04:18:21.830Z,42.58
2019-06-20T04:20:51.129Z,43.63
2019-06-20T04:23:20.402Z,43.45
2019-06-20T04:25:49.680Z,43.40
2019-06-20T04:28:18.957Z,42.45
2019-06-20T04:30:48.232Z,43.28
2019-06-20T04:33:17.524Z,43.80
2019-06-20T04:35:46.775Z,44.50
2019-06-20T04:38:16.068Z,43.73
2019-06-20T04:40:45.327Z,44.20
2019-06-20T04:43:14.629Z,44.85
2019-06-20T04:46:05.905Z,44.00
2019-06-20T04:48:35.199Z,43.87
2019-06-20T04:51:04.542Z,45.25
2019-06-20T04:53:33.851Z,46.15
2019-06-20T04:56:05.578Z,44.90
2019-06-20T04:58:34.124Z,45.85
2019-06-20T05:01:03.412Z,45.70
2019-06-20T05:03:35.803Z,43.90
2019-06-20T05:06:05.034Z,44.67
2019-06-20T05:08:34.317Z,43.30
2019-06-20T05:11:03.704Z,46.77
2019-06-20T05:13:33.110Z,45.20
2019-06-20T05:16:02.509Z,46.20
2019-06-20T05:18:31.877Z,45.52
2019-06-20T05:21:01.179Z,44.42
2019-06-20T05:23:30.448Z,44.88
2019-06-20T05:25:59.772Z,45.52
2019-06-20T05:28:29.072Z,44.08
2019-06-20T05:30:58.388Z,43.70
2019-06-20T05:33:27.649Z,44.35
2019-06-20T05:35:56.927Z,43.00
2019-06-20T05:38:26.188Z,43.87
2019-06-20T05:40:55.479Z,42.93
2019-06-20T05:43:24.763Z,41.18
2019-06-20T05:46:08.425Z,39.55
2019-06-20T05:48:25.368Z,39.53
2019-06-20T05:50:54.783Z,38.05
2019-06-20T05:53:24.044Z,35.95
2019-06-20T05:55:53.415Z,35.85
2019-06-20T05:58:22.864Z,34.92
2019-06-20T06:00:52.174Z,34.18
2019-06-20T06:03:21.429Z,34.80
2019-06-20T06:05:52.148Z,34.70
2019-06-20T06:08:21.388Z,34.40
2019-06-20T06:10:53.810Z,35.43
2019-06-20T06:13:23.101Z,34.03
2019-06-20T06:15:52.412Z,35.40
2019-06-20T06:18:21.840Z,34.33
2019-06-20T06:20:51.164Z,34.92
2019-06-20T06:23:20.462Z,33.70
2019-06-20T06:25:49.708Z,33.25
2019-06-20T06:28:19.057Z,33.00
2019-06-20T06:30:48.362Z,33.70
2019-06-20T06:33:17.635Z,30.85
2019-06-20T06:35:46.891Z,33.02
2019-06-20T06:38:22.155Z,30.60
2019-06-20T06:40:47.176Z,30.43
2019-06-20T06:43:16.449Z,31.15
2019-06-20T06:45:45.720Z,30.37
2019-06-20T06:48:14.986Z,31.12
2019-06-20T06:50:44.285Z,24.02
2019-06-20T06:53:13.633Z,28.52
2019-06-20T06:55:42.901Z,27.85
2019-06-20T06:58:12.362Z,27.02
2019-06-20T07:00:41.667Z,26.45
2019-06-20T07:03:10.965Z,23.65
2019-06-20T07:05:40.267Z,22.27
2019-06-20T07:08:09.558Z,18.67
2019-06-20T07:10:38.816Z,21.00
2019-06-20T07:13:08.206Z,20.55
2019-06-20T07:15:37.515Z,20.88
2019-06-20T07:18:06.899Z,21.10
2019-06-20T07:20:36.175Z,19.48
2019-06-20T07:23:05.509Z,18.30
2019-06-20T07:26:00.845Z,17.10
2019-06-20T07:28:30.213Z,17.50
2019-06-20T07:30:59.478Z,16.48
2019-06-20T07:33:28.728Z,15.28
2019-06-20T07:35:58.039Z,17.07
2019-06-20T07:41:55.488Z,17.00
2019-06-20T07:44:24.780Z,17.42
2019-06-20T07:46:54.081Z,17.65
2019-06-20T07:49:23.426Z,19.05
2019-06-20T07:51:52.717Z,18.42
2019-06-20T07:54:22.061Z,16.62
2019-06-20T07:56:51.340Z,16.52
2019-06-20T07:59:20.666Z,18.23
2019-06-20T08:01:50.087Z,15.85
2019-06-20T08:04:19.359Z,14.90
2019-06-20T08:06:48.661Z,16.93
2019-06-20T08:09:17.948Z,15.70
2019-06-20T08:11:47.277Z,14.50
2019-06-20T08:14:16.994Z,14.93
2019-06-20T08:16:46.345Z,14.73
2019-06-20T08:19:15.781Z,17.23
2019-06-20T08:21:45.133Z,17.25
2019-06-20T08:24:16.219Z,15.80
2019-06-20T08:26:45.730Z,16.85
2019-06-20T08:29:21.183Z,17.50
2019-06-20T08:31:46.292Z,17.98
2019-06-20T08:34:15.555Z,16.97
2019-06-20T08:36:44.962Z,18.25
2019-06-20T08:39:14.472Z,18.40
2019-06-20T08:41:43.981Z,15.78
2019-06-20T08:44:17.621Z,15.25
2019-06-20T08:46:45.724Z,18.55
2019-06-20T08:49:15.134Z,16.50
2019-06-20T08:51:44.434Z,19.35
2019-06-20T08:58:05.761Z,16.50
2019-06-20T09:04:14.804Z,16.62
2019-06-20T09:06:44.345Z,17.55
2019-06-20T09:09:13.747Z,14.98
2019-06-20T09:11:43.049Z,18.87
2019-06-20T09:14:38.333Z,16.87
2019-06-20T09:17:29.864Z,16.65
2019-06-20T09:20:00.257Z,17.40
2019-06-20T09:22:29.677Z,15.53
2019-06-20T09:24:59.081Z,14.60
2019-06-20T09:27:28.504Z,15.45
2019-06-20T09:29:58.529Z,14.13
2019-06-20T09:32:28.002Z,12.58
2019-06-20T09:34:58.681Z,13.58
2019-06-20T09:37:28.087Z,11.45
2019-06-20T09:39:57.619Z,13.70
2019-06-20T09:42:27.214Z,10.60
2019-06-20T09:44:56.542Z,11.33
2019-06-20T09:47:25.776Z,9.33
2019-06-20T09:49:56.015Z,8.30
2019-06-20T09:52:26.135Z,8.23
2019-06-20T09:54:56.131Z,10.23
2019-06-20T09:57:25.381Z,9.70
2019-06-20T10:00:05.633Z,8.75
2019-06-20T10:02:25.771Z,9.10
2019-06-20T10:04:56.327Z,7.42
2019-06-20T10:07:25.945Z,8.93
2019-06-20T10:09:56.303Z,8.33
2019-06-20T10:12:25.723Z,8.48
2019-06-20T10:14:56.164Z,7.92
2019-06-20T10:17:25.540Z,8.58
2019-06-20T10:19:56.240Z,7.97
2019-06-20T10:22:25.615Z,8.25
2019-06-20T10:24:54.939Z,7.35
2019-06-20T10:27:24.303Z,7.03
2019-06-20T10:30:31.912Z,7.20
2019-06-20T10:33:01.249Z,9.85
2019-06-20T10:35:30.545Z,8.90
2019-06-20T10:37:59.861Z,9.65
2019-06-20T10:40:29.358Z,8.90
2019-06-20T10:42:58.648Z,8.93
2019-06-20T10:45:28.295Z,32.23
2019-06-20T10:47:57.760Z,10.05
2019-06-20T10:50:27.858Z,9.58
2019-06-20T10:52:57.167Z,9.13
2019-06-20T10:55:26.621Z,8.98
2019-06-20T10:57:55.885Z,8.87
2019-06-20T11:00:31.278Z,8.05
2019-06-20T11:02:57.054Z,9.85
2019-06-20T11:05:26.532Z,9.83
2019-06-20T11:07:55.834Z,9.65
2019-06-20T11:10:26.688Z,9.80
2019-06-20T11:12:56.518Z,10.08
2019-06-20T11:15:28.430Z,9.03
2019-06-20T11:17:57.768Z,10.15
2019-06-20T11:20:27.395Z,10.15
2019-06-20T11:22:56.678Z,11.05
2019-06-20T11:25:26.050Z,11.20
2019-06-20T11:27:55.361Z,10.98
2019-06-20T11:30:25.394Z,11.35
2019-06-20T11:32:54.829Z,11.88
2019-06-20T11:35:24.102Z,11.90
2019-06-20T11:37:53.408Z,11.57
2019-06-20T11:40:22.720Z,10.93
2019-06-20T11:42:52.076Z,10.18
2019-06-20T11:45:21.626Z,9.40
2019-06-20T11:47:50.936Z,11.83
2019-06-20T11:50:21.770Z,10.78
2019-06-20T11:52:51.171Z,9.95
2019-06-20T11:55:20.669Z,10.45
2019-06-20T11:57:49.955Z,11.83
2019-06-20T12:00:20.915Z,10.85
2019-06-20T12:02:50.495Z,11.93
2019-06-20T12:05:19.947Z,13.03
2019-06-20T12:07:50.028Z,11.48
2019-06-20T12:10:21.556Z,11.75
2019-06-20T12:12:50.972Z,11.57
2019-06-20T12:15:20.789Z,11.15
2019-06-20T12:17:50.231Z,12.25
2019-06-20T12:20:20.623Z,11.70
2019-06-20T12:22:50.843Z,11.90
2019-06-20T12:25:20.447Z,10.38
2019-06-20T12:27:49.904Z,11.18
2019-06-20T12:30:21.879Z,11.73
2019-06-20T12:33:03.481Z,12.35
2019-06-20T12:35:32.843Z,9.57
2019-06-20T12:38:02.179Z,12.00
2019-06-20T12:40:31.499Z,11.25
2019-06-20T12:43:00.918Z,11.03
2019-06-20T12:45:30.294Z,10.90
2019-06-20T12:47:59.595Z,10.53
2019-06-20T12:50:28.914Z,10.70
2019-06-20T12:53:37.727Z,10.58
2019-06-20T13:03:46.266Z,8.85
2019-06-20T13:06:15.684Z,9.17
2019-06-20T13:08:45.238Z,8.38
2019-06-20T13:11:14.623Z,9.23
2019-06-20T13:13:44.401Z,8.55
2019-06-20T13:16:13.789Z,11.08
2019-06-20T13:18:44.628Z,9.38
2019-06-20T13:21:13.998Z,10.32
2019-06-20T13:23:43.276Z,8.70
2019-06-20T13:26:12.595Z,8.10
2019-06-20T13:29:01.651Z,8.65
2019-06-20T13:31:14.439Z,10.93
2019-06-20T13:33:44.736Z,11.05
2019-06-20T13:36:14.180Z,10.15
2019-06-20T13:38:44.519Z,14.85
2019-06-20T13:41:13.927Z,9.48
2019-06-20T13:43:43.249Z,10.70
2019-06-20T13:46:12.564Z,11.93
2019-06-20T13:48:42.634Z,11.25
2019-06-20T13:51:12.823Z,13.45
2019-06-20T13:53:42.676Z,13.03
2019-06-20T13:56:14.952Z,13.40
2019-06-20T13:58:44.806Z,13.43
2019-06-20T14:01:14.311Z,18.92
2019-06-20T14:03:45.316Z,13.88
2019-06-20T14:06:14.737Z,13.88
2019-06-20T14:08:45.868Z,14.83
2019-06-20T14:11:15.041Z,16.07
2019-06-20T14:13:53.163Z,16.15
2019-06-20T14:16:22.461Z,17.40
2019-06-20T14:18:51.749Z,17.23
2019-06-20T14:21:21.056Z,16.12
2019-06-20T14:23:50.353Z,15.68
2019-06-20T14:26:19.662Z,19.62
2019-06-20T14:28:48.953Z,19.70
2019-06-20T14:31:18.264Z,17.42
2019-06-20T14:33:48.508Z,16.80
2019-06-20T14:36:17.808Z,15.63
2019-06-20T14:38:47.389Z,16.37
2019-06-20T14:41:16.672Z,19.10
2019-06-20T14:43:46.182Z,15.40
2019-06-20T14:46:16.803Z,15.83
2019-06-20T14:48:47.323Z,15.08
2019-06-20T14:51:17.144Z,14.78
2019-06-20T14:53:47.244Z,16.42
2019-06-20T14:56:16.492Z,16.17
2019-06-20T14:58:46.724Z,16.12
2019-06-20T15:01:16.093Z,14.43
2019-06-20T15:03:46.108Z,16.60
2019-06-20T15:06:16.527Z,16.20
2019-06-20T15:08:47.241Z,14.23
2019-06-20T15:11:16.954Z,15.90
2019-06-20T15:13:47.626Z,15.40
2019-06-20T15:16:17.427Z,15.90
2019-06-20T15:18:49.814Z,15.48
2019-06-20T15:21:17.739Z,14.63
2019-06-20T15:23:48.833Z,16.23
2019-06-20T15:26:18.066Z,15.83
2019-06-20T15:28:47.998Z,15.03
2019-06-20T15:31:18.443Z,15.08
2019-06-20T15:33:49.191Z,12.35
2019-06-20T15:36:18.751Z,10.70
2019-06-20T15:38:49.371Z,11.43
2019-06-20T15:41:19.094Z,10.80
2019-06-20T15:43:49.800Z,10.35
2019-06-20T15:46:19.271Z,9.70
2019-06-20T15:48:49.207Z,8.85
2019-06-20T15:51:18.589Z,8.45
2019-06-20T15:53:48.550Z,8.20
2019-06-20T15:56:19.603Z,8.00
2019-06-20T15:58:49.059Z,7.75
2019-06-20T16:01:18.409Z,7.85
2019-06-20T16:03:47.833Z,6.60
2019-06-20T16:06:17.297Z,7.30
2019-06-20T16:08:49.501Z,7.87
2019-06-20T16:11:25.867Z,8.85
2019-06-20T16:13:55.494Z,9.05
2019-06-20T16:16:24.937Z,9.70
2019-06-20T16:18:54.418Z,10.75
2019-06-20T16:21:23.799Z,9.88
2019-06-20T16:23:53.274Z,9.20
2019-06-20T16:26:22.718Z,10.90
2019-06-20T16:28:52.087Z,13.45
2019-06-20T16:31:26.796Z,17.30
2019-06-20T16:33:52.703Z,17.87
2019-06-20T16:36:22.069Z,15.80
2019-06-20T16:38:51.458Z,15.00
2019-06-20T16:41:20.755Z,17.70
2019-06-20T16:43:50.041Z,17.12
2019-06-20T16:46:19.911Z,13.10
2019-06-20T16:48:49.577Z,13.95
2019-06-20T16:51:18.805Z,13.85
2019-06-20T16:53:48.577Z,15.60
2019-06-20T16:56:17.845Z,18.05
2019-06-20T16:58:47.163Z,15.70
2019-06-20T17:01:16.431Z,17.20
2019-06-20T17:03:48.185Z,18.20
2019-06-20T17:06:17.532Z,18.37
2019-06-20T17:08:46.895Z,19.05
2019-06-20T17:11:21.898Z,17.77
2019-06-20T17:13:51.234Z,21.68
2019-06-20T17:16:20.547Z,26.87
2019-06-20T17:18:49.927Z,26.12
2019-06-20T17:21:19.181Z,26.12
2019-06-20T17:23:48.670Z,22.15
2019-06-20T17:26:17.941Z,22.30
2019-06-20T17:28:47.268Z,19.45
2019-06-20T17:31:16.551Z,15.60
2019-06-20T17:33:57.087Z,15.72
2019-06-20T17:36:19.042Z,17.00
2019-06-20T17:38:48.322Z,15.83
2019-06-20T17:41:17.904Z,17.32
2019-06-20T17:43:47.216Z,18.15
2019-06-20T17:46:16.650Z,16.23
2019-06-20T17:48:46.036Z,15.50
2019-06-20T17:51:15.332Z,16.67
2019-06-20T17:53:49.988Z,16.75
2019-06-20T17:56:19.305Z,16.77
2019-06-20T17:58:48.634Z,17.60
2019-06-20T18:01:18.261Z,17.07
2019-06-20T18:03:47.546Z,19.48
2019-06-20T18:06:16.840Z,20.08
2019-06-20T18:08:46.117Z,19.50
2019-06-20T18:11:15.413Z,17.50
2019-06-20T18:13:44.695Z,16.60
2019-06-20T18:16:25.422Z,16.57
2019-06-20T18:18:53.674Z,16.73
2019-06-20T18:21:23.022Z,16.80
2019-06-20T18:23:52.318Z,17.75
2019-06-20T18:26:21.712Z,16.70
2019-06-20T18:28:50.989Z,17.52
2019-06-20T18:31:20.300Z,17.65
2019-06-20T18:33:49.599Z,17.12
2019-06-20T18:36:18.865Z,17.02
2019-06-20T18:38:48.202Z,17.95
2019-06-20T18:41:17.502Z,18.40
2019-06-20T18:43:46.813Z,18.05
2019-06-20T18:46:16.141Z,18.75
2019-06-20T18:48:45.479Z,17.60
2019-06-20T18:51:14.790Z,18.75
2019-06-20T18:53:44.091Z,20.37
2019-06-20T18:56:15.474Z,21.23
2019-06-20T18:58:44.812Z,21.00
2019-06-20T19:01:14.203Z,20.77
2019-06-20T19:03:43.530Z,19.60
2019-06-20T19:06:12.932Z,19.45
2019-06-20T19:08:42.300Z,21.30
2019-06-20T19:11:11.732Z,20.25
2019-06-20T19:13:41.198Z,17.57
2019-06-20T19:16:10.570Z,18.57
2019-06-20T19:18:39.899Z,18.10
2019-06-20T19:21:09.232Z,18.60
2019-06-20T19:23:38.590Z,18.95
2019-06-20T19:26:07.986Z,19.50
2019-06-20T19:28:39.933Z,20.70
2019-06-20T19:31:09.230Z,20.45
2019-06-20T19:33:38.505Z,22.85
2019-06-20T19:36:07.805Z,22.52
2019-06-20T19:38:37.071Z,24.35
2019-06-20T19:41:06.369Z,25.00
2019-06-20T19:43:35.676Z,25.15
2019-06-20T19:46:05.020Z,24.32
2019-06-20T19:48:36.651Z,25.45
2019-06-20T19:51:05.527Z,28.30
2019-06-20T19:53:34.832Z,28.38
2019-06-20T19:56:04.132Z,28.27
2019-06-20T20:01:01.812Z,29.57
2019-06-20T20:03:31.144Z,27.95
2019-06-20T20:06:00.427Z,28.95
2019-06-20T20:08:29.810Z,30.90
2019-06-20T20:10:59.210Z,31.50
2019-06-20T20:13:28.493Z,32.03
2019-06-20T20:15:57.913Z,31.40
2019-06-20T20:18:27.509Z,30.72
2019-06-20T20:20:56.808Z,31.05
2019-06-20T20:23:26.179Z,32.33
2019-06-20T20:25:55.585Z,32.55
2019-06-20T20:28:24.959Z,33.40
2019-06-20T20:30:54.443Z,34.35
2019-06-20T20:33:23.841Z,34.58
2019-06-20T20:35:53.244Z,36.85
2019-06-20T20:38:24.312Z,36.90
2019-06-20T20:40:53.683Z,37.20
2019-06-20T20:43:23.886Z,37.40
2019-06-20T20:45:53.360Z,37.38
2019-06-20T20:48:22.671Z,37.20
2019-06-20T20:50:52.006Z,36.85
2019-06-20T20:53:21.363Z,37.08
2019-06-20T20:55:50.713Z,38.58
2019-06-20T20:58:20.071Z,37.50
2019-06-20T21:05:28.498Z,40.10
2019-06-20T21:09:14.873Z,37.13
2019-06-20T21:15:13.950Z,35.13
2019-06-20T21:17:55.491Z,36.48
2019-06-20T21:20:22.476Z,37.28
2019-06-20T21:22:51.882Z,37.55
2019-06-20T21:25:21.457Z,33.45
2019-06-20T21:27:51.015Z,33.67
2019-06-20T21:30:20.529Z,33.67
2019-06-20T21:32:51.330Z,31.02
2019-06-20T21:35:20.708Z,32.83
2019-06-20T21:37:50.197Z,29.23
2019-06-20T21:40:20.041Z,30.08
2019-06-20T21:42:49.505Z,30.17
2019-06-20T21:45:20.120Z,27.40
2019-06-20T21:47:49.578Z,28.32
2019-06-20T21:50:25.125Z,29.12
2019-06-20T21:52:54.542Z,30.50
2019-06-20T21:55:23.817Z,28.45
2019-06-20T21:57:53.129Z,29.63
2019-06-20T22:00:27.892Z,29.92
2019-06-20T22:02:57.194Z,30.50
2019-06-20T22:05:26.497Z,30.00
2019-06-20T22:07:55.811Z,30.32
2019-06-20T22:10:25.101Z,31.62
2019-06-20T22:12:54.433Z,30.82
2019-06-20T22:15:23.681Z,31.17
2019-06-20T22:17:52.988Z,30.95
2019-06-20T22:20:23.271Z,31.90
2019-06-20T22:22:52.581Z,32.83
2019-06-20T22:25:22.149Z,32.53
2019-06-20T22:27:51.467Z,32.42
2019-06-20T22:30:41.184Z,34.58
2019-06-20T22:33:10.459Z,34.33
2019-06-20T22:35:39.735Z,35.25
2019-06-20T22:38:09.016Z,34.73
2019-06-20T22:40:38.343Z,35.48
2019-06-20T22:43:07.748Z,34.85
2019-06-20T22:45:37.144Z,36.05
2019-06-20T22:48:06.591Z,35.92
2019-06-20T22:50:35.883Z,36.88
2019-06-20T22:53:05.200Z,36.53
2019-06-20T22:55:34.521Z,38.40
2019-06-20T22:58:03.849Z,37.03
2019-06-20T23:00:33.154Z,36.90
2019-06-20T23:03:02.424Z,39.13
2019-06-20T23:05:31.711Z,37.85
2019-06-20T23:08:00.979Z,39.90
2019-06-20T23:10:30.432Z,39.75
2019-06-20T23:12:59.718Z,40.00
2019-06-20T23:15:29.001Z,40.60
2019-06-20T23:17:58.307Z,39.42
2019-06-20T23:20:27.752Z,37.93
2019-06-20T23:22:57.098Z,37.75
2019-06-20T23:25:26.387Z,35.33
2019-06-20T23:27:55.703Z,36.08
2019-06-20T23:30:25.321Z,31.55
2019-06-20T23:32:54.596Z,31.80
2019-06-20T23:35:23.913Z,33.28
2019-06-20T23:37:53.170Z,32.35
2019-06-20T23:40:22.549Z,29.48
2019-06-20T23:42:51.795Z,27.27
2019-06-20T23:45:21.972Z,29.23
2019-06-20T23:47:51.230Z,29.23
2019-06-20T23:50:20.544Z,27.95
2019-06-20T23:52:55.290Z,28.10
2019-06-20T23:55:24.565Z,28.17
2019-06-20T23:57:53.928Z,27.30
